TimeCST,TemperatureF,Dew PointF,Humidity,Sea Level PressureIn,VisibilityMPH,Wind Direction,Wind SpeedMPH,Gust SpeedMPH,PrecipitationIn,Events,Conditions,WindDirDegrees,DateUTC
12:53 AM,34.0,32.0,92,30.12,10.0,Calm,Calm,-,N/A,,Clear,0,2013-02-04 06:53:00
1:53 AM,32.0,30.0,92,30.11,9.0,Calm,Calm,-,N/A,,Clear,0,2013-02-04 07:53:00
2:53 AM,30.0,28.9,96,30.11,10.0,Calm,Calm,-,N/A,,Clear,0,2013-02-04 08:53:00
4:53 AM,30.0,28.9,96,30.12,7.0,Calm,Calm,-,N/A,,Clear,0,2013-02-04 10:53:00
5:53 AM,32.0,30.0,92,30.11,6.0,SSE,3.5,-,N/A,,Clear,150,2013-02-04 11:53:00
6:53 AM,33.1,30.9,92,30.12,10.0,Calm,Calm,-,N/A,,Clear,0,2013-02-04 12:53:00
7:53 AM,37.9,34.0,86,30.13,8.0,Calm,Calm,-,N/A,,Clear,0,2013-02-04 13:53:00
8:53 AM,43.0,35.1,74,30.12,10.0,ENE,5.8,-,N/A,,Clear,60,2013-02-04 14:53:00
9:53 AM,51.1,33.1,50,30.13,10.0,ENE,4.6,-,N/A,,Clear,70,2013-02-04 15:53:00
10:53 AM,55.0,28.9,37,30.14,10.0,South,4.6,-,N/A,,Clear,180,2013-02-04 16:53:00
11:53 AM,55.0,28.9,37,30.13,10.0,SW,3.5,-,N/A,,Clear,230,2013-02-04 17:53:00
12:53 PM,57.0,28.9,34,30.09,8.0,Calm,Calm,-,N/A,,Clear,0,2013-02-04 18:53:00
1:53 PM,59.0,30.0,33,30.06,10.0,Variable,5.8,-,N/A,,Clear,0,2013-02-04 19:53:00
2:53 PM,60.1,30.0,32,30.04,10.0,Variable,5.8,-,N/A,,Clear,0,2013-02-04 20:53:00
3:53 PM,59.0,30.9,35,30.04,10.0,South,8.1,-,N/A,,Clear,190,2013-02-04 21:53:00
4:53 PM,57.0,33.1,40,30.03,10.0,South,4.6,-,N/A,,Clear,180,2013-02-04 22:53:00
5:53 PM,53.1,36.0,52,30.04,10.0,Calm,Calm,-,N/A,,Clear,0,2013-02-04 23:53:00
6:53 PM,51.1,37.0,59,30.04,10.0,Calm,Calm,-,N/A,,Clear,0,2013-02-05 00:53:00
7:53 PM,48.9,37.9,66,30.04,10.0,Calm,Calm,-,N/A,,Clear,0,2013-02-05 01:53:00
8:53 PM,46.9,37.9,71,30.04,10.0,Calm,Calm,-,N/A,,Clear,0,2013-02-05 02:53:00
9:53 PM,44.1,37.9,79,30.04,10.0,Calm,Calm,-,N/A,,Clear,0,2013-02-05 03:53:00
10:53 PM,44.1,39.0,82,30.04,10.0,Calm,Calm,-,N/A,,Clear,0,2013-02-05 04:53:00
11:53 PM,44.1,39.0,82,30.01,10.0,Calm,Calm,-,N/A,,Partly Cloudy,0,2013-02-05 05:53:00